Terminal Aerodrome Forecast
Issued by NWS

Home | Current Version | Previous Version | Text Only | Print | Product List | Glossary On
Versions: 1 2 3 4 5 6 7 8 9 10 11 12 13 14
000
FTUS42 KMLB 232326
TAFTIX
TAF
KTIX 232326Z 2400/2424 20003KT P6SM BKN200
     FM241400 22006KT P6SM SCT025 BKN200
     FM241800 21009KT P6SM VCTS SCT040CB BKN150
      AMD NOT SKED 2401/2411=

USA.gov is the U.S. government's official web portal to all federal, state and local government web resources and services.